Time;durP1;ratioP1;P1;durP2;ratioP2;P2;SDS_P1;SDS_P2;PMS_P1;PMS_P2;Temp;Humidity;BMP_temperature;BMP_pressure;BME280_temperature;BME280_humidity;BME280_pressure;Samples;Min_cycle;Max_cycle;Signal;HPM_P1;HPM_P2
2021/01/09 00:01:40;;;;;;;12.73;7.47;;;2.20;89.20;;;;;;5074746;28;20242;-60
2021/01/09 00:04:06;;;;;;;9.57;6.47;;;2.10;96.70;;;;;;5076339;28;20552;-60
2021/01/09 00:06:40;;;;;;;9.07;6.40;;;2.10;99.90;;;;;;5076409;28;20173;-60
2021/01/09 00:09:11;;;;;;;13.75;8.02;;;1.90;99.90;;;;;;5076156;28;20177;-62
2021/01/09 00:11:37;;;;;;;9.30;5.60;;;1.90;99.90;;;;;;5075969;28;20187;-59
2021/01/09 00:14:03;;;;;;;11.95;7.55;;;1.90;99.90;;;;;;5092156;28;20192;-57
2021/01/09 00:16:28;;;;;;;12.73;8.33;;;1.80;99.90;;;;;;5074871;28;20180;-57
2021/01/09 00:18:54;;;;;;;14.63;8.03;;;1.80;99.90;;;;;;5076175;28;20188;-60
2021/01/09 00:21:21;;;;;;;10.57;7.17;;;2.00;99.90;;;;;;5075815;28;20216;-58
2021/01/09 00:23:46;;;;;;;8.20;5.53;;;1.80;99.90;;;;;;5074120;28;20439;-61
2021/01/09 00:26:12;;;;;;;9.57;6.03;;;1.90;99.90;;;;;;5080400;28;20484;-61
2021/01/09 00:28:38;;;;;;;12.50;7.10;;;1.70;99.90;;;;;;5080767;28;20621;-60
2021/01/09 00:31:06;;;;;;;11.83;6.30;;;1.80;99.90;;;;;;5081049;28;20558;-60
2021/01/09 00:33:33;;;;;;;15.43;8.75;;;1.80;99.90;;;;;;5079813;28;20173;-58
2021/01/09 00:35:59;;;;;;;14.95;8.23;;;1.70;99.90;;;;;;5079551;28;20176;-57
2021/01/09 00:38:25;;;;;;;11.82;7.97;;;1.90;99.90;;;;;;5079071;28;20185;-58
2021/01/09 00:40:51;;;;;;;12.90;8.87;;;1.90;99.90;;;;;;5078272;28;20261;-61
2021/01/09 00:43:19;;;;;;;13.97;8.80;;;1.90;99.90;;;;;;5078934;28;20255;-61
2021/01/09 00:45:51;;;;;;;15.90;8.98;;;1.90;99.90;;;;;;5079047;28;20472;-58
2021/01/09 00:48:17;;;;;;;11.85;7.55;;;1.80;99.90;;;;;;5079187;28;20172;-59
2021/01/09 00:50:46;;;;;;;13.70;8.33;;;1.80;99.90;;;;;;5078101;28;20187;-60
2021/01/09 00:53:11;;;;;;;13.60;8.15;;;1.80;99.90;;;;;;5077788;28;20227;-57
2021/01/09 00:55:37;;;;;;;14.33;8.20;;;1.70;99.90;;;;;;5077798;28;20196;-60
2021/01/09 00:58:02;;;;;;;11.00;7.77;;;1.80;99.90;;;;;;5094180;28;20189;-57
2021/01/09 01:00:28;;;;;;;10.57;6.70;;;1.60;99.90;;;;;;5077949;28;20233;-60
2021/01/09 01:02:53;;;;;;;13.43;8.20;;;1.70;99.90;;;;;;5077821;28;20314;-60
2021/01/09 01:05:19;;;;;;;12.60;6.37;;;1.50;99.90;;;;;;5078000;28;20195;-60
2021/01/09 01:07:44;;;;;;;12.37;7.10;;;1.60;99.90;;;;;;5077830;28;20248;-61
2021/01/09 01:10:12;;;;;;;14.30;8.93;;;1.60;99.90;;;;;;5077246;28;20683;-58
2021/01/09 01:12:37;;;;;;;13.48;8.13;;;1.60;99.90;;;;;;5076147;28;20191;-59
2021/01/09 01:15:04;;;;;;;15.37;8.70;;;1.60;99.90;;;;;;5076349;28;20584;-59
2021/01/09 01:17:30;;;;;;;11.68;6.80;;;1.70;99.90;;;;;;5076815;28;20259;-58
2021/01/09 01:19:56;;;;;;;14.27;8.40;;;1.50;99.90;;;;;;5076655;28;20296;-60
2021/01/09 01:22:21;;;;;;;14.80;9.20;;;1.50;99.90;;;;;;5077156;28;20557;-61
2021/01/09 01:24:47;;;;;;;15.37;8.83;;;1.70;99.90;;;;;;5076713;28;20904;-60
2021/01/09 01:27:16;;;;;;;16.87;9.47;;;1.50;99.90;;;;;;5076376;28;20169;-59
2021/01/09 01:29:41;;;;;;;55.63;28.35;;;1.50;99.90;;;;;;5076390;28;20233;-62
2021/01/09 01:32:07;;;;;;;18.63;10.00;;;1.70;99.90;;;;;;5076949;28;20184;-60
2021/01/09 01:34:32;;;;;;;14.13;9.40;;;1.70;99.90;;;;;;5075761;28;20188;-59
2021/01/09 01:36:58;;;;;;;14.03;7.90;;;1.70;99.90;;;;;;5076287;28;20620;-62
2021/01/09 01:39:23;;;;;;;12.73;8.17;;;1.50;99.90;;;;;;5078007;28;20195;-59
2021/01/09 01:41:49;;;;;;;14.67;8.50;;;1.60;99.90;;;;;;5079933;28;20173;-59
2021/01/09 01:44:15;;;;;;;13.43;7.23;;;1.50;99.90;;;;;;5078904;28;20207;-58
2021/01/09 01:46:40;;;;;;;10.70;6.93;;;1.60;99.90;;;;;;5079016;28;20246;-62
2021/01/09 01:49:07;;;;;;;11.80;7.83;;;1.60;99.90;;;;;;5079187;28;20254;-62
2021/01/09 01:51:32;;;;;;;10.63;7.32;;;1.70;99.90;;;;;;5079424;28;20180;-58
2021/01/09 01:53:59;;;;;;;14.73;8.50;;;1.60;99.90;;;;;;5079095;28;20177;-57
2021/01/09 01:56:26;;;;;;;10.77;7.75;;;1.60;99.90;;;;;;5080046;28;20211;-57
2021/01/09 01:58:51;;;;;;;13.88;8.73;;;1.60;99.90;;;;;;5079338;28;20168;-61
2021/01/09 02:01:18;;;;;;;11.90;7.03;;;1.60;99.90;;;;;;5079007;28;20219;-58
2021/01/09 02:03:44;;;;;;;11.25;7.78;;;1.70;99.90;;;;;;5078066;28;20227;-60
2021/01/09 02:06:16;;;;;;;11.60;6.97;;;1.70;99.90;;;;;;5077946;28;20181;-57
2021/01/09 02:08:49;;;;;;;12.05;7.95;;;1.70;99.90;;;;;;5078058;28;20268;-57
2021/01/09 02:11:26;;;;;;;10.45;6.57;;;1.70;99.90;;;;;;5075988;28;20173;-61
2021/01/09 02:14:00;;;;;;;15.07;7.45;;;1.70;99.90;;;;;;5075186;28;20199;-57
2021/01/09 02:16:27;;;;;;;10.43;7.18;;;1.80;99.90;;;;;;5076012;28;20180;-57
2021/01/09 02:18:54;;;;;;;11.20;6.28;;;1.80;99.90;;;;;;5075688;28;20191;-57
2021/01/09 02:21:34;;;;;;;10.98;7.88;;;1.90;99.90;;;;;;5075963;28;20204;-57
2021/01/09 02:23:59;;;;;;;9.10;6.60;;;1.80;99.90;;;;;;5076390;28;20177;-61
2021/01/09 02:26:25;;;;;;;10.13;6.63;;;1.60;99.90;;;;;;5076397;28;20187;-58
2021/01/09 02:29:00;;;;;;;13.73;7.27;;;1.70;99.90;;;;;;5076321;28;20184;-58
2021/01/09 02:31:26;;;;;;;13.20;7.82;;;1.70;99.90;;;;;;5074762;28;20203;-58
2021/01/09 02:33:51;;;;;;;13.88;8.50;;;1.90;99.90;;;;;;5074395;28;20184;-59
2021/01/09 02:36:18;;;;;;;11.80;6.63;;;1.90;99.90;;;;;;5075542;28;20480;-58
2021/01/09 02:38:44;;;;;;;10.57;6.88;;;1.70;99.90;;;;;;5075664;28;20593;-58
2021/01/09 02:41:13;;;;;;;13.40;7.90;;;1.90;99.90;;;;;;5075884;28;20201;-58
2021/01/09 02:43:41;;;;;;;12.90;8.23;;;2.00;99.90;;;;;;5074892;28;20181;-59
2021/01/09 02:46:06;;;;;;;12.90;7.53;;;2.00;99.90;;;;;;5075025;28;20516;-58
2021/01/09 02:48:32;;;;;;;11.00;6.73;;;1.90;99.90;;;;;;5090362;28;20187;-58
2021/01/09 02:50:58;;;;;;;12.73;7.80;;;2.00;99.90;;;;;;5075231;28;20180;-58
2021/01/09 02:53:32;;;;;;;13.27;8.00;;;1.90;99.90;;;;;;5075031;28;20172;-58
2021/01/09 02:55:58;;;;;;;11.88;7.30;;;1.90;99.90;;;;;;5074845;28;20434;-58
2021/01/09 02:58:23;;;;;;;9.10;6.30;;;2.00;99.90;;;;;;5074958;28;20173;-58
2021/01/09 03:00:49;;;;;;;13.20;7.70;;;1.90;99.90;;;;;;5090950;28;20855;-60
2021/01/09 03:03:15;;;;;;;13.60;8.53;;;1.90;99.90;;;;;;5074692;28;20591;-57
2021/01/09 03:05:40;;;;;;;12.70;8.40;;;2.10;99.90;;;;;;5074688;28;20183;-57
2021/01/09 03:08:06;;;;;;;13.70;9.27;;;2.10;99.90;;;;;;5074292;28;20505;-59
2021/01/09 03:10:31;;;;;;;14.00;7.10;;;2.20;99.90;;;;;;5074253;28;20181;-59
2021/01/09 03:12:57;;;;;;;12.90;7.80;;;2.10;99.90;;;;;;5074897;28;20514;-60
2021/01/09 03:15:23;;;;;;;11.83;8.13;;;1.90;99.90;;;;;;5074018;28;20629;-58
2021/01/09 03:17:49;;;;;;;13.97;7.60;;;2.00;99.90;;;;;;5074105;28;20180;-60
2021/01/09 03:20:15;;;;;;;16.70;8.07;;;2.10;99.90;;;;;;5074046;28;20192;-60
2021/01/09 03:22:42;;;;;;;12.17;7.53;;;2.10;99.90;;;;;;5074058;28;20211;-57
2021/01/09 03:25:08;;;;;;;13.20;8.40;;;2.10;99.90;;;;;;5074308;28;20175;-57
2021/01/09 03:27:34;;;;;;;12.98;7.03;;;2.20;99.90;;;;;;5074701;28;20173;-57
2021/01/09 03:30:00;;;;;;;13.93;8.97;;;2.20;99.90;;;;;;5075147;28;20512;-58
2021/01/09 03:32:31;;;;;;;13.13;7.87;;;2.30;99.90;;;;;;5074779;28;20188;-60
2021/01/09 03:34:57;;;;;;;11.55;8.00;;;2.30;99.90;;;;;;5074661;28;20441;-60
2021/01/09 03:37:22;;;;;;;12.00;7.70;;;2.30;99.90;;;;;;5074533;28;20263;-60
2021/01/09 03:39:48;;;;;;;12.90;7.90;;;2.10;99.90;;;;;;5074382;28;20200;-58
2021/01/09 03:42:14;;;;;;;15.40;7.93;;;2.20;99.90;;;;;;5073454;28;20329;-60
2021/01/09 03:44:40;;;;;;;14.73;8.02;;;2.00;99.90;;;;;;5074115;28;20624;-61
2021/01/09 03:47:09;;;;;;;14.13;9.37;;;2.00;99.90;;;;;;5074066;28;20184;-58
2021/01/09 03:49:35;;;;;;;11.10;6.97;;;1.90;99.90;;;;;;5075276;28;20215;-58
2021/01/09 03:52:00;;;;;;;13.50;7.35;;;2.00;99.90;;;;;;5075097;28;20177;-57
2021/01/09 03:54:26;;;;;;;12.10;7.60;;;2.00;99.90;;;;;;5075146;28;20177;-57
2021/01/09 03:56:52;;;;;;;12.37;7.27;;;2.00;99.90;;;;;;5074706;28;20407;-57
2021/01/09 03:59:17;;;;;;;12.93;7.13;;;2.00;99.90;;;;;;5074002;28;20250;-57
2021/01/09 04:01:43;;;;;;;11.20;7.10;;;2.00;99.90;;;;;;5073548;28;20258;-57
2021/01/09 04:04:10;;;;;;;11.50;6.90;;;2.00;99.90;;;;;;5072532;28;20245;-57
2021/01/09 04:06:36;;;;;;;14.02;7.63;;;2.20;99.90;;;;;;5073532;28;20177;-61
2021/01/09 04:09:02;;;;;;;13.90;7.63;;;2.10;99.90;;;;;;5073317;28;20519;-61
2021/01/09 04:11:27;;;;;;;13.00;7.20;;;2.00;99.90;;;;;;5073369;28;20267;-61
2021/01/09 04:13:55;;;;;;;15.40;8.50;;;2.00;99.90;;;;;;5089610;28;20176;-61
2021/01/09 04:16:21;;;;;;;12.60;6.88;;;2.00;99.90;;;;;;5073880;28;20686;-61
2021/01/09 04:18:46;;;;;;;14.40;8.90;;;1.90;99.90;;;;;;5073421;28;20196;-61
2021/01/09 04:21:12;;;;;;;18.13;9.80;;;2.00;99.90;;;;;;5073269;28;20224;-61
2021/01/09 04:23:38;;;;;;;14.60;7.53;;;2.20;99.90;;;;;;5073031;28;20184;-61
2021/01/09 04:26:03;;;;;;;12.57;8.53;;;2.10;99.90;;;;;;5073315;28;20173;-60
2021/01/09 04:28:29;;;;;;;16.33;9.80;;;2.10;99.90;;;;;;5073129;28;20508;-60
2021/01/09 04:30:54;;;;;;;15.23;9.00;;;2.00;99.90;;;;;;5073237;28;20497;-60
2021/01/09 04:33:20;;;;;;;10.37;6.00;;;2.00;99.90;;;;;;5072784;28;20227;-60
2021/01/09 04:35:45;;;;;;;13.20;7.73;;;2.00;99.90;;;;;;5073217;28;20280;-60
2021/01/09 04:38:11;;;;;;;14.40;8.70;;;2.00;99.90;;;;;;5073309;28;20263;-60
2021/01/09 04:40:37;;;;;;;14.63;8.60;;;2.10;99.90;;;;;;5073116;28;20227;-60
2021/01/09 04:43:02;;;;;;;15.63;8.80;;;2.20;99.90;;;;;;5073076;28;20264;-60
2021/01/09 04:45:28;;;;;;;13.63;9.27;;;2.20;99.90;;;;;;5072785;28;20181;-60
2021/01/09 04:47:54;;;;;;;14.63;8.87;;;1.90;99.90;;;;;;5073120;28;20274;-60
2021/01/09 04:50:20;;;;;;;14.80;8.60;;;1.90;99.90;;;;;;5072870;28;20189;-60
2021/01/09 04:52:46;;;;;;;13.80;7.32;;;1.80;99.90;;;;;;5072880;28;20194;-60
2021/01/09 04:55:12;;;;;;;16.33;10.23;;;1.90;99.90;;;;;;5072742;28;20181;-60
2021/01/09 04:57:38;;;;;;;16.57;10.23;;;1.80;99.90;;;;;;5072875;28;20257;-60
2021/01/09 05:00:06;;;;;;;24.20;13.13;;;1.90;99.90;;;;;;5072550;28;20473;-60
2021/01/09 05:02:35;;;;;;;21.83;11.50;;;1.90;99.90;;;;;;5072845;28;20184;-60
2021/01/09 05:05:00;;;;;;;14.25;9.15;;;2.00;99.90;;;;;;5072532;28;20172;-60
2021/01/09 05:07:26;;;;;;;13.70;7.93;;;1.90;99.90;;;;;;5072805;28;20183;-60
2021/01/09 05:10:00;;;;;;;15.53;10.20;;;1.90;99.90;;;;;;5073036;28;20177;-60
2021/01/09 05:12:31;;;;;;;16.00;9.95;;;2.00;99.90;;;;;;5076431;28;20177;-60
2021/01/09 05:14:57;;;;;;;15.48;9.10;;;2.00;99.90;;;;;;5076018;28;20230;-60
2021/01/09 05:17:24;;;;;;;15.17;9.20;;;2.10;99.90;;;;;;5076387;28;20565;-60
2021/01/09 05:19:50;;;;;;;15.40;8.32;;;2.10;99.90;;;;;;5076594;28;20184;-60
2021/01/09 05:22:15;;;;;;;15.73;9.10;;;1.90;99.90;;;;;;5076275;28;20212;-60
2021/01/09 05:24:46;;;;;;;15.97;8.73;;;1.80;99.90;;;;;;5075915;28;20504;-60
2021/01/09 05:27:12;;;;;;;14.35;8.65;;;1.70;99.90;;;;;;5076340;28;20426;-60
2021/01/09 05:29:37;;;;;;;13.30;7.50;;;1.80;99.90;;;;;;5075977;28;20183;-60
2021/01/09 05:32:04;;;;;;;15.27;9.90;;;1.80;99.90;;;;;;5076093;28;20921;-57
2021/01/09 05:34:30;;;;;;;12.48;8.25;;;1.90;99.90;;;;;;5075870;28;20236;-57
2021/01/09 05:36:56;;;;;;;17.00;9.80;;;2.00;99.90;;;;;;5075964;28;20193;-58
2021/01/09 05:39:21;;;;;;;13.47;8.97;;;2.10;99.90;;;;;;5076075;28;20164;-57
2021/01/09 05:41:47;;;;;;;20.07;10.70;;;2.00;99.90;;;;;;5076020;28;20516;-57
2021/01/09 05:44:13;;;;;;;13.47;8.23;;;2.00;99.90;;;;;;5075514;28;20180;-57
2021/01/09 05:46:41;;;;;;;14.43;8.57;;;2.10;99.90;;;;;;5075772;28;20258;-58
2021/01/09 05:49:09;;;;;;;14.82;10.15;;;1.90;77.00;;;;;;5075737;28;20191;-58
2021/01/09 05:51:38;;;;;;;13.15;7.40;;;1.80;54.50;;;;;;5075707;28;20181;-57
2021/01/09 05:54:03;;;;;;;13.95;7.72;;;1.90;70.80;;;;;;5075412;28;20604;-57
2021/01/09 05:56:29;;;;;;;11.70;8.03;;;1.90;71.90;;;;;;5075604;28;20185;-57
2021/01/09 05:58:56;;;;;;;15.13;8.17;;;1.90;59.90;;;;;;5074593;28;20192;-60
2021/01/09 06:01:27;;;;;;;14.45;6.82;;;1.70;51.80;;;;;;5075396;28;20212;-58
2021/01/09 06:04:03;;;;;;;10.82;7.25;;;1.80;65.70;;;;;;5075125;28;20288;-61
2021/01/09 06:06:38;;;;;;;15.63;8.27;;;1.70;65.70;;;;;;5075429;28;20172;-60
2021/01/09 06:09:07;;;;;;;13.30;8.00;;;1.70;82.90;;;;;;5075273;28;20579;-58
2021/01/09 06:11:40;;;;;;;15.68;9.68;;;1.70;90.10;;;;;;5075222;28;20177;-57
2021/01/09 06:14:12;;;;;;;21.42;9.05;;;1.70;92.30;;;;;;5075191;28;20181;-61
2021/01/09 06:16:39;;;;;;;14.70;7.80;;;1.70;95.60;;;;;;5075123;28;20249;-58
2021/01/09 06:19:06;;;;;;;14.55;9.43;;;1.80;97.50;;;;;;5075236;28;20353;-58
2021/01/09 06:21:33;;;;;;;16.05;8.45;;;1.70;95.40;;;;;;5074882;28;20279;-58
2021/01/09 06:24:01;;;;;;;14.48;9.45;;;1.90;99.00;;;;;;5074776;28;20540;-60
2021/01/09 06:26:28;;;;;;;13.27;7.68;;;1.90;92.20;;;;;;5075113;28;20180;-60
2021/01/09 06:28:59;;;;;;;14.60;9.45;;;1.80;85.00;;;;;;5075166;28;20177;-57
2021/01/09 06:31:27;;;;;;;13.50;8.98;;;1.70;75.10;;;;;;5074918;28;20184;-61
2021/01/09 06:33:55;;;;;;;15.30;8.32;;;1.80;73.50;;;;;;5074595;28;20606;-60
2021/01/09 06:36:24;;;;;;;11.57;6.20;;;1.70;82.70;;;;;;5074672;28;20639;-58
2021/01/09 06:38:55;;;;;;;13.95;8.02;;;1.60;90.00;;;;;;5073805;28;20188;-61
2021/01/09 06:41:23;;;;;;;15.00;8.90;;;1.60;95.50;;;;;;5074827;28;20208;-59
2021/01/09 06:43:51;;;;;;;11.98;8.02;;;1.80;99.90;;;;;;5074402;28;20181;-58
2021/01/09 06:46:31;;;;;;;12.30;7.90;;;1.70;97.40;;;;;;5074655;28;20248;-61
2021/01/09 06:48:58;;;;;;;11.38;7.65;;;1.60;98.70;;;;;;5074369;28;20188;-57
2021/01/09 06:51:35;;;;;;;13.05;7.03;;;1.60;99.90;;;;;;5074522;28;20199;-57
2021/01/09 06:54:20;;;;;;;13.68;7.53;;;1.50;99.90;;;;;;5074119;28;20266;-61
2021/01/09 06:57:10;;;;;;;11.10;7.00;;;1.50;99.90;;;;;;5074251;28;20176;-60
2021/01/09 06:59:40;;;;;;;11.95;7.93;;;1.70;99.90;;;;;;5073640;28;20292;-60
2021/01/09 07:02:19;;;;;;;13.82;8.35;;;1.80;99.90;;;;;;5074263;28;20423;-60
2021/01/09 07:04:51;;;;;;;13.57;8.05;;;1.70;99.90;;;;;;5074357;28;20195;-60
2021/01/09 07:07:51;;;;;;;15.07;7.88;;;1.60;99.90;;;;;;5074856;28;20571;-58
2021/01/09 07:10:26;;;;;;;10.98;7.80;;;1.60;99.90;;;;;;5074552;28;20618;-58
2021/01/09 07:12:59;;;;;;;15.52;7.18;;;1.50;99.90;;;;;;5074082;28;20184;-58
2021/01/09 07:15:28;;;;;;;13.95;9.50;;;1.60;99.90;;;;;;5074141;28;20168;-60
2021/01/09 07:17:58;;;;;;;13.70;8.45;;;1.80;99.90;;;;;;5073896;28;20192;-60
2021/01/09 07:20:28;;;;;;;14.90;9.32;;;1.80;99.90;;;;;;5074338;28;20358;-60
2021/01/09 07:23:00;;;;;;;13.15;8.45;;;1.80;99.90;;;;;;5072979;28;20184;-60
2021/01/09 07:25:33;;;;;;;11.70;7.45;;;1.70;99.90;;;;;;5073864;28;20176;-61
2021/01/09 07:28:01;;;;;;;11.55;7.47;;;1.60;99.90;;;;;;5073855;28;20164;-61
2021/01/09 07:30:28;;;;;;;13.38;8.85;;;1.70;99.90;;;;;;5073790;28;20268;-61
2021/01/09 07:32:55;;;;;;;15.30;9.43;;;1.80;99.90;;;;;;5073595;28;20221;-61
2021/01/09 07:35:45;;;;;;;16.00;8.50;;;1.80;99.90;;;;;;5073808;28;20284;-61
2021/01/09 07:38:12;;;;;;;10.63;5.78;;;1.90;99.90;;;;;;5068489;28;20250;-61
2021/01/09 07:40:49;;;;;;;13.15;8.13;;;1.90;99.90;;;;;;5073707;28;20325;-61
2021/01/09 07:43:33;;;;;;;16.38;8.60;;;1.80;99.90;;;;;;5073716;28;20196;-58
2021/01/09 07:46:00;;;;;;;14.35;8.75;;;1.80;99.90;;;;;;5074057;28;20601;-58
2021/01/09 07:48:32;;;;;;;13.52;8.98;;;1.90;99.90;;;;;;5073240;28;20271;-58
2021/01/09 07:50:58;;;;;;;15.80;8.70;;;1.80;99.90;;;;;;5073426;28;20271;-58
2021/01/09 07:53:27;;;;;;;16.10;9.47;;;1.80;99.90;;;;;;5073364;28;20255;-60
2021/01/09 07:55:53;;;;;;;18.27;9.68;;;1.80;99.90;;;;;;5073859;28;20174;-60
2021/01/09 07:58:39;;;;;;;15.77;8.75;;;1.80;99.90;;;;;;5073752;28;20188;-60
2021/01/09 08:01:04;;;;;;;16.00;7.82;;;1.70;99.90;;;;;;5073367;28;20310;-60
2021/01/09 08:03:32;;;;;;;16.80;9.27;;;1.60;99.90;;;;;;5073464;28;20339;-60
2021/01/09 08:05:58;;;;;;;13.52;8.27;;;1.60;99.90;;;;;;5073515;28;20755;-60
2021/01/09 08:08:25;;;;;;;15.65;9.07;;;1.70;99.90;;;;;;5073636;28;20207;-60
2021/01/09 08:10:51;;;;;;;16.25;10.13;;;1.60;99.90;;;;;;5073590;28;20227;-60
2021/01/09 08:13:17;;;;;;;15.30;9.30;;;1.80;99.90;;;;;;5073390;28;20373;-60
2021/01/09 08:15:43;;;;;;;15.18;8.48;;;1.70;99.90;;;;;;5073419;28;20259;-60
2021/01/09 08:18:10;;;;;;;16.95;9.48;;;1.80;99.90;;;;;;5073304;28;20227;-60
2021/01/09 08:20:35;;;;;;;18.35;10.70;;;1.60;99.90;;;;;;5073100;28;20684;-60
2021/01/09 08:23:03;;;;;;;15.53;8.33;;;1.70;99.90;;;;;;5072960;28;20188;-60
2021/01/09 08:25:33;;;;;;;13.93;7.93;;;2.00;99.90;;;;;;5072973;28;20196;-60
2021/01/09 08:28:01;;;;;;;15.77;9.50;;;2.10;99.90;;;;;;5073103;28;20263;-60
2021/01/09 08:30:29;;;;;;;15.38;9.10;;;2.30;99.90;;;;;;5072972;28;20177;-60
2021/01/09 08:33:02;;;;;;;14.93;9.38;;;2.20;99.90;;;;;;5072924;28;20270;-60
2021/01/09 08:35:29;;;;;;;18.80;11.20;;;1.90;98.90;;;;;;5072878;28;20268;-60
2021/01/09 08:37:54;;;;;;;21.38;12.55;;;1.90;99.90;;;;;;5072130;28;20363;-60
2021/01/09 08:40:22;;;;;;;17.23;9.43;;;1.90;99.90;;;;;;5073079;28;20697;-61
2021/01/09 08:42:56;;;;;;;19.55;9.57;;;1.90;99.90;;;;;;5073093;28;20172;-60
2021/01/09 08:45:49;;;;;;;13.82;7.82;;;1.90;99.90;;;;;;5073866;28;20173;-60
2021/01/09 08:48:19;;;;;;;19.83;10.40;;;1.90;99.90;;;;;;5076935;28;20503;-60
2021/01/09 08:50:57;;;;;;;17.83;10.55;;;2.00;99.90;;;;;;5077020;28;20587;-60
2021/01/09 08:53:24;;;;;;;18.38;10.05;;;2.20;99.90;;;;;;5076435;28;20618;-60
2021/01/09 08:55:55;;;;;;;15.07;8.48;;;2.00;98.90;;;;;;5076862;28;20264;-60
2021/01/09 08:58:20;;;;;;;15.50;8.30;;;2.10;99.90;;;;;;5076752;28;20239;-61
2021/01/09 09:00:47;;;;;;;16.93;9.70;;;2.30;99.90;;;;;;5076498;28;20224;-60
2021/01/09 09:03:16;;;;;;;15.27;8.68;;;2.40;99.90;;;;;;5076182;28;20180;-60
2021/01/09 09:05:43;;;;;;;15.88;9.10;;;2.20;69.10;;;;;;5076625;28;20173;-60
2021/01/09 09:08:12;;;;;;;18.13;9.27;;;2.30;57.90;;;;;;5076854;28;20176;-60
2021/01/09 09:10:39;;;;;;;19.10;10.63;;;2.60;42.30;;;;;;5076306;28;20180;-60
2021/01/09 09:13:19;;;;;;;21.17;12.02;;;2.50;1.00;;;;;;5076181;28;20172;-60
2021/01/09 09:15:45;;;;;;;20.55;10.55;;;2.60;1.00;;;;;;5076285;28;20183;-60
2021/01/09 09:18:11;;;;;;;15.77;8.90;;;2.60;1.00;;;;;;5076352;28;20564;-60
2021/01/09 09:20:38;;;;;;;21.00;10.80;;;2.40;1.00;;;;;;5076094;28;20239;-60
2021/01/09 09:23:17;;;;;;;14.85;8.60;;;2.30;1.00;;;;;;5075856;28;20441;-59
2021/01/09 09:25:43;;;;;;;21.40;11.05;;;2.10;1.00;;;;;;5076147;28;20187;-59
2021/01/09 09:28:09;;;;;;;21.80;11.27;;;2.00;1.00;;;;;;5076202;28;20173;-60
2021/01/09 09:30:34;;;;;;;17.90;10.27;;;2.00;1.00;;;;;;5076099;28;20180;-60
2021/01/09 09:33:15;;;;;;;21.57;12.27;;;1.90;1.00;;;;;;5076159;28;20184;-60
2021/01/09 09:35:41;;;;;;;19.27;9.38;;;1.90;28.80;;;;;;5075883;28;20621;-60
2021/01/09 09:38:10;;;;;;;21.03;12.00;;;1.90;39.60;;;;;;5074701;28;20632;-61
2021/01/09 09:40:38;;;;;;;20.83;12.43;;;1.90;48.10;;;;;;5075770;28;20523;-61
2021/01/09 09:43:15;;;;;;;20.80;10.50;;;2.10;62.20;;;;;;5075796;28;20181;-60
2021/01/09 09:46:04;;;;;;;17.67;10.10;;;2.20;59.80;;;;;;5075570;28;20165;-60
2021/01/09 09:48:31;;;;;;;23.73;10.27;;;2.20;34.20;;;;;;5074513;28;20178;-61
2021/01/09 09:51:15;;;;;;;18.23;10.40;;;2.10;9.40;;;;;;5075581;28;20181;-61
2021/01/09 09:53:51;;;;;;;18.77;9.65;;;2.00;1.00;;;;;;5075312;28;20184;-61
2021/01/09 09:56:22;;;;;;;17.55;9.35;;;2.10;1.00;;;;;;5075171;28;20180;-60
2021/01/09 09:59:00;;;;;;;14.18;7.03;;;2.20;1.00;;;;;;5074469;28;20181;-62
2021/01/09 10:01:27;;;;;;;16.98;9.55;;;1.90;1.00;;;;;;5074272;28;20648;-60
2021/01/09 10:03:52;;;;;;;19.38;10.73;;;1.90;1.00;;;;;;5075420;28;20180;-60
2021/01/09 10:06:19;;;;;;;12.43;7.60;;;2.20;1.00;;;;;;5075726;28;20177;-56
2021/01/09 10:08:45;;;;;;;16.35;8.50;;;1.90;1.00;;;;;;5075761;28;20208;-61
2021/01/09 10:11:10;;;;;;;15.98;9.00;;;2.10;1.00;;;;;;5075564;28;20186;-61
2021/01/09 10:13:37;;;;;;;17.40;8.30;;;2.30;1.00;;;;;;5075173;28;20185;-63
2021/01/09 10:16:03;;;;;;;17.77;9.38;;;2.30;1.00;;;;;;5075458;28;20749;-58
2021/01/09 10:18:30;;;;;;;16.77;8.88;;;2.30;1.00;;;;;;5075598;28;20177;-60
2021/01/09 10:20:57;;;;;;;20.65;9.93;;;2.30;1.00;;;;;;5075031;28;20262;-62
2021/01/09 10:23:23;;;;;;;15.90;9.00;;;2.10;1.00;;;;;;5074623;28;20512;-62
2021/01/09 10:25:49;;;;;;;18.52;10.35;;;2.20;1.00;;;;;;5075172;28;20172;-58
2021/01/09 10:28:15;;;;;;;22.90;11.63;;;2.40;1.00;;;;;;5074985;28;20179;-63
2021/01/09 10:30:40;;;;;;;22.03;10.60;;;2.30;1.00;;;;;;5074989;28;20276;-62
2021/01/09 10:33:07;;;;;;;20.07;10.30;;;2.20;1.00;;;;;;5073356;28;20173;-61
2021/01/09 10:35:33;;;;;;;29.30;14.18;;;2.00;1.00;;;;;;5074568;28;20181;-62
2021/01/09 10:38:02;;;;;;;25.05;12.55;;;2.00;1.00;;;;;;5074577;28;20177;-60
2021/01/09 10:40:27;;;;;;;27.27;13.25;;;1.90;13.60;;;;;;5074624;28;20526;-60
2021/01/09 10:42:53;;;;;;;27.53;12.90;;;1.90;25.10;;;;;;5073660;28;20177;-61
2021/01/09 10:45:19;;;;;;;24.60;14.20;;;1.80;30.00;;;;;;5074628;28;20181;-60
2021/01/09 10:47:45;;;;;;;26.43;15.40;;;1.80;51.60;;;;;;5074849;28;20176;-61
2021/01/09 10:50:11;;;;;;;24.20;13.70;;;2.10;64.40;;;;;;5091162;28;20961;-59
2021/01/09 10:52:37;;;;;;;26.38;15.30;;;2.20;56.80;;;;;;5074510;28;20479;-62
2021/01/09 10:55:05;;;;;;;24.55;13.00;;;2.40;52.60;;;;;;5074463;28;20172;-60
2021/01/09 10:57:30;;;;;;;27.58;15.88;;;2.30;26.30;;;;;;5074388;28;20192;-59
2021/01/09 10:59:56;;;;;;;27.73;14.97;;;2.20;15.90;;;;;;5074391;28;20188;-59
2021/01/09 11:02:22;;;;;;;29.07;13.77;;;2.10;18.20;;;;;;5073726;28;20173;-60
2021/01/09 11:04:47;;;;;;;27.37;15.27;;;2.20;23.80;;;;;;5073588;28;20181;-60
2021/01/09 11:07:13;;;;;;;29.30;15.57;;;2.50;35.60;;;;;;5073821;28;20260;-61
2021/01/09 11:09:39;;;;;;;30.47;15.57;;;2.70;28.70;;;;;;5073280;28;20204;-58
2021/01/09 11:12:05;;;;;;;31.17;15.50;;;2.70;1.00;;;;;;5073963;28;20231;-57
2021/01/09 11:14:31;;;;;;;34.92;16.05;;;2.40;1.00;;;;;;5073561;28;20176;-57
2021/01/09 11:16:59;;;;;;;28.83;15.03;;;2.20;1.00;;;;;;5074291;28;20172;-57
2021/01/09 11:19:24;;;;;;;28.02;12.10;;;2.30;2.10;;;;;;5074326;28;20679;-59
2021/01/09 11:21:50;;;;;;;24.37;12.07;;;2.10;9.80;;;;;;5074555;28;20200;-57
2021/01/09 11:24:16;;;;;;;25.13;13.17;;;2.10;31.50;;;;;;5074206;28;20183;-58
2021/01/09 11:26:42;;;;;;;21.40;14.07;;;2.10;49.40;;;;;;5073351;28;20521;-58
2021/01/09 11:29:08;;;;;;;27.07;13.53;;;2.30;63.70;;;;;;5074364;28;20735;-59
2021/01/09 11:31:34;;;;;;;29.13;13.07;;;2.20;49.80;;;;;;5073209;28;20435;-58
2021/01/09 11:34:00;;;;;;;24.80;12.83;;;2.40;53.90;;;;;;5072561;28;20431;-58
2021/01/09 11:36:27;;;;;;;26.10;14.13;;;2.40;34.10;;;;;;5073861;28;20423;-58
2021/01/09 11:38:52;;;;;;;28.15;12.60;;;2.40;22.60;;;;;;5074095;28;20622;-57
2021/01/09 11:41:18;;;;;;;25.13;13.63;;;2.40;15.50;;;;;;5072579;28;20717;-57
2021/01/09 11:43:44;;;;;;;25.27;12.93;;;2.20;7.70;;;;;;5073305;28;20169;-58
2021/01/09 11:46:11;;;;;;;25.60;14.43;;;2.30;22.30;;;;;;5073177;28;20183;-61
2021/01/09 11:48:39;;;;;;;25.80;13.25;;;2.30;31.80;;;;;;5073797;28;20423;-59
2021/01/09 11:51:04;;;;;;;23.67;10.77;;;2.60;43.30;;;;;;5073659;28;20173;-61
2021/01/09 11:53:30;;;;;;;21.70;12.60;;;2.10;1.00;;;;;;5073368;28;20585;-57
2021/01/09 11:55:56;;;;;;;27.17;14.17;;;2.10;11.90;;;;;;5073410;28;20181;-59
2021/01/09 11:58:21;;;;;;;17.53;9.33;;;2.30;40.00;;;;;;5073326;28;20238;-61
2021/01/09 12:00:47;;;;;;;28.57;12.40;;;2.10;21.20;;;;;;5072379;28;20651;-62
2021/01/09 12:03:14;;;;;;;25.50;12.97;;;2.00;41.10;;;;;;5072921;28;20183;-64
2021/01/09 12:05:40;;;;;;;21.38;10.02;;;1.80;67.30;;;;;;5073251;28;20860;-63
2021/01/09 12:08:06;;;;;;;25.92;12.93;;;1.90;99.00;;;;;;5073095;28;20477;-60
2021/01/09 12:10:32;;;;;;;26.23;12.20;;;1.90;99.90;;;;;;5073053;28;20192;-60
2021/01/09 12:13:02;;;;;;;24.77;13.52;;;2.00;99.90;;;;;;5073280;28;20188;-57
2021/01/09 12:15:27;;;;;;;25.42;13.82;;;2.00;99.90;;;;;;5071802;28;20199;-57
2021/01/09 12:17:53;;;;;;;27.17;12.70;;;1.90;99.90;;;;;;5073567;28;20172;-57
2021/01/09 12:20:19;;;;;;;23.67;11.93;;;2.10;99.90;;;;;;5076575;28;20232;-57
2021/01/09 12:22:44;;;;;;;27.57;13.43;;;2.10;99.90;;;;;;5077717;28;20176;-57
2021/01/09 12:25:10;;;;;;;28.80;15.57;;;2.20;99.90;;;;;;5077086;28;20430;-57
2021/01/09 12:27:36;;;;;;;31.75;15.82;;;2.30;99.90;;;;;;5076975;28;20253;-57
2021/01/09 12:30:03;;;;;;;30.70;13.37;;;2.30;94.10;;;;;;5077148;28;20605;-56
2021/01/09 12:32:29;;;;;;;26.20;12.10;;;2.20;73.70;;;;;;5076028;28;20188;-56
2021/01/09 12:34:54;;;;;;;24.30;11.13;;;2.10;76.00;;;;;;5077264;28;20180;-57
2021/01/09 12:37:20;;;;;;;29.23;12.57;;;1.90;91.30;;;;;;5077383;28;20168;-56
2021/01/09 12:39:46;;;;;;;25.70;12.67;;;2.00;99.90;;;;;;5077048;28;20491;-63
2021/01/09 12:42:12;;;;;;;29.20;12.93;;;2.00;99.90;;;;;;5075715;28;20588;-57
2021/01/09 12:44:38;;;;;;;25.00;11.30;;;2.10;99.90;;;;;;5075456;28;20187;-56
2021/01/09 12:47:04;;;;;;;24.65;13.02;;;2.10;99.90;;;;;;5076785;28;20715;-61
2021/01/09 12:49:32;;;;;;;25.50;13.40;;;2.30;99.90;;;;;;5076878;28;20187;-59